Time;durP1;ratioP1;P1;durP2;ratioP2;P2;SDS_P1;SDS_P2;PMS_P1;PMS_P2;Temp;Humidity;BMP_temperature;BMP_pressure;BME280_temperature;BME280_humidity;BME280_pressure;Samples;Min_cycle;Max_cycle;Signal;HPM_P1;HPM_P2
2023/04/27 00:00:56;;;;;;;5.40;3.33;;;10.40;99.90;;;;;;5042856;28;20459;-69
2023/04/27 00:03:22;;;;;;;4.17;3.80;;;10.30;99.90;;;;;;5056149;28;20270;-69
2023/04/27 00:05:47;;;;;;;8.70;3.57;;;10.40;99.90;;;;;;5055851;28;20657;-68
2023/04/27 00:08:13;;;;;;;5.40;3.07;;;10.40;99.90;;;;;;5054148;28;20640;-69
2023/04/27 00:10:38;;;;;;;5.00;3.77;;;10.50;99.90;;;;;;5055566;28;20222;-68
2023/04/27 00:13:04;;;;;;;7.13;4.03;;;10.60;99.90;;;;;;5055301;28;20620;-68
2023/04/27 00:15:30;;;;;;;4.20;2.90;;;10.60;99.90;;;;;;5055580;28;20719;-68
2023/04/27 00:17:56;;;;;;;3.50;3.20;;;10.50;99.90;;;;;;5055105;28;20501;-68
2023/04/27 00:20:22;;;;;;;4.43;4.00;;;10.50;99.90;;;;;;5055104;28;20192;-68
2023/04/27 00:22:48;;;;;;;4.73;3.60;;;10.50;99.90;;;;;;5055822;28;20169;-68
2023/04/27 00:25:13;;;;;;;4.53;3.70;;;10.40;99.90;;;;;;5055379;28;20769;-69
2023/04/27 00:27:39;;;;;;;4.50;3.40;;;10.40;99.90;;;;;;5054910;28;20713;-69
2023/04/27 00:30:05;;;;;;;4.30;3.20;;;10.40;99.90;;;;;;5055541;28;20225;-70
2023/04/27 00:32:31;;;;;;;3.60;2.77;;;10.40;99.90;;;;;;5056027;28;20180;-68
2023/04/27 00:34:56;;;;;;;9.83;3.70;;;10.50;99.90;;;;;;5055179;28;20492;-68
2023/04/27 00:37:22;;;;;;;5.10;3.60;;;10.50;99.90;;;;;;5055084;28;20205;-68
2023/04/27 00:39:47;;;;;;;7.70;3.33;;;10.60;99.90;;;;;;5078662;23;20204;-69
2023/04/27 00:42:16;;;;;;;3.80;3.47;;;10.60;99.90;;;;;;5017225;28;20219;-70
2023/04/27 00:44:42;;;;;;;6.57;4.00;;;10.60;99.90;;;;;;5035612;28;20215;-69
2023/04/27 00:47:08;;;;;;;6.40;3.40;;;10.70;99.90;;;;;;5035689;28;20492;-70
2023/04/27 00:49:34;;;;;;;8.33;3.00;;;10.60;99.90;;;;;;5034998;28;20657;-70
2023/04/27 00:52:00;;;;;;;6.00;3.90;;;10.60;99.90;;;;;;5016392;28;20435;-69
2023/04/27 00:54:25;;;;;;;8.00;3.40;;;10.50;99.90;;;;;;5015807;28;20165;-70
2023/04/27 00:56:52;;;;;;;4.13;3.67;;;10.40;99.90;;;;;;5014184;28;20176;-70
2023/04/27 00:59:18;;;;;;;4.67;3.80;;;10.40;99.90;;;;;;5013981;28;20234;-70
2023/04/27 01:01:48;;;;;;;5.47;3.70;;;10.40;99.90;;;;;;5015216;28;20451;-70
2023/04/27 01:04:13;;;;;;;5.27;3.67;;;10.50;99.90;;;;;;4997317;28;20427;-70
2023/04/27 01:06:39;;;;;;;4.73;3.43;;;10.50;99.90;;;;;;5015398;28;20461;-69
2023/04/27 01:09:05;;;;;;;5.30;2.93;;;10.60;99.90;;;;;;5012901;28;20544;-70
2023/04/27 01:11:32;;;;;;;3.70;3.37;;;10.70;99.90;;;;;;5014766;28;20195;-69
2023/04/27 01:14:02;;;;;;;3.73;3.20;;;10.70;99.90;;;;;;5014808;28;20415;-70
2023/04/27 01:16:27;;;;;;;7.03;3.30;;;10.70;99.90;;;;;;5015167;28;20454;-70
2023/04/27 01:18:53;;;;;;;4.10;3.67;;;10.60;99.90;;;;;;5015200;28;20810;-70
2023/04/27 01:21:19;;;;;;;4.30;3.90;;;10.50;99.90;;;;;;5014719;28;20192;-70
2023/04/27 01:23:44;;;;;;;4.47;3.67;;;10.40;99.90;;;;;;5013697;28;20529;-69
2023/04/27 01:26:12;;;;;;;4.27;3.87;;;10.40;99.90;;;;;;5014948;28;20222;-69
2023/04/27 01:28:38;;;;;;;3.70;3.40;;;10.40;99.90;;;;;;5014170;28;20160;-70
2023/04/27 01:31:03;;;;;;;4.23;3.10;;;10.40;99.90;;;;;;5014801;28;20532;-69
2023/04/27 01:33:29;;;;;;;4.90;3.70;;;10.40;99.90;;;;;;5013977;28;20181;-70
2023/04/27 01:35:55;;;;;;;4.63;3.10;;;10.50;99.90;;;;;;5014811;28;20206;-69
2023/04/27 01:38:22;;;;;;;4.60;3.27;;;10.40;99.90;;;;;;5014357;28;20407;-70
2023/04/27 01:40:48;;;;;;;4.37;3.50;;;10.30;99.90;;;;;;5014575;28;20466;-70
2023/04/27 01:43:14;;;;;;;4.07;3.67;;;10.20;99.90;;;;;;5014375;28;20400;-70
2023/04/27 01:45:40;;;;;;;5.03;4.13;;;10.10;99.90;;;;;;5013309;28;20168;-70
2023/04/27 01:48:05;;;;;;;5.43;3.60;;;10.00;99.90;;;;;;5014695;28;20683;-70
2023/04/27 01:50:31;;;;;;;11.17;4.57;;;9.90;99.90;;;;;;5014761;28;20548;-70
2023/04/27 01:52:57;;;;;;;4.60;4.20;;;9.90;99.90;;;;;;5014588;28;20168;-70
2023/04/27 01:55:22;;;;;;;5.43;3.77;;;9.90;99.90;;;;;;5014567;28;20657;-70
2023/04/27 01:57:48;;;;;;;5.63;4.27;;;9.80;99.90;;;;;;5014270;28;20169;-70
2023/04/27 02:00:14;;;;;;;4.53;4.10;;;9.90;99.90;;;;;;5014144;28;20191;-70
2023/04/27 02:02:40;;;;;;;10.93;4.53;;;10.00;99.90;;;;;;5014335;28;20161;-70
2023/04/27 02:05:06;;;;;;;7.47;3.87;;;10.10;99.90;;;;;;5014257;28;20486;-70
2023/04/27 02:07:31;;;;;;;6.43;3.83;;;10.00;99.90;;;;;;4996637;28;20268;-68
2023/04/27 02:09:57;;;;;;;6.00;4.33;;;10.00;99.90;;;;;;4996688;28;20423;-71
2023/04/27 02:12:22;;;;;;;4.67;4.00;;;9.90;99.90;;;;;;5013094;28;20618;-70
2023/04/27 02:14:48;;;;;;;5.60;4.10;;;9.80;99.90;;;;;;5014031;28;20252;-70
2023/04/27 02:17:13;;;;;;;4.30;3.50;;;9.80;99.90;;;;;;5013929;28;20234;-71
2023/04/27 02:19:39;;;;;;;4.80;4.30;;;9.70;99.90;;;;;;5014011;28;20529;-70
2023/04/27 02:22:04;;;;;;;5.17;3.63;;;9.70;99.90;;;;;;4996570;28;20203;-70
2023/04/27 02:24:30;;;;;;;3.90;3.50;;;9.90;99.90;;;;;;5014125;28;20222;-70
2023/04/27 02:26:56;;;;;;;4.40;4.00;;;10.00;99.90;;;;;;5014218;28;20174;-70
2023/04/27 02:29:22;;;;;;;5.23;4.30;;;10.00;99.90;;;;;;4996193;28;20179;-70
2023/04/27 02:31:47;;;;;;;4.77;4.37;;;9.90;99.90;;;;;;5013811;28;20434;-70
2023/04/27 02:34:13;;;;;;;8.40;4.30;;;9.90;99.90;;;;;;5013751;28;20188;-70
2023/04/27 02:36:38;;;;;;;6.57;4.40;;;9.80;99.90;;;;;;5014095;28;20528;-70
2023/04/27 02:39:04;;;;;;;5.17;4.50;;;9.90;99.90;;;;;;5013812;28;20178;-70
2023/04/27 02:41:32;;;;;;;8.17;4.40;;;10.00;99.90;;;;;;5012857;28;20214;-70
2023/04/27 02:43:58;;;;;;;10.90;6.07;;;10.00;99.90;;;;;;5013349;28;20171;-70
2023/04/27 02:46:24;;;;;;;7.13;5.00;;;10.00;99.90;;;;;;5013666;28;20406;-70
2023/04/27 02:48:49;;;;;;;4.77;4.37;;;9.90;99.90;;;;;;5013388;28;20206;-70
2023/04/27 02:51:15;;;;;;;9.00;4.37;;;9.80;99.90;;;;;;5013257;28;20222;-70
2023/04/27 02:53:40;;;;;;;5.77;5.17;;;9.80;99.90;;;;;;5012769;28;20225;-70
2023/04/27 02:56:06;;;;;;;6.00;4.87;;;9.70;99.90;;;;;;5012268;28;20194;-70
2023/04/27 02:58:32;;;;;;;5.93;4.73;;;9.80;99.90;;;;;;5013211;28;20682;-70
2023/04/27 03:00:57;;;;;;;5.73;4.70;;;9.80;99.90;;;;;;5013492;28;20203;-70
2023/04/27 03:03:23;;;;;;;7.40;5.20;;;9.90;99.90;;;;;;5013093;28;20181;-69
2023/04/27 03:05:48;;;;;;;5.17;4.57;;;9.90;99.90;;;;;;5013334;28;20225;-70
2023/04/27 03:08:15;;;;;;;6.27;5.03;;;9.90;99.90;;;;;;5013820;28;20171;-70
2023/04/27 03:10:40;;;;;;;6.57;4.67;;;9.90;99.90;;;;;;5013442;28;20195;-70
2023/04/27 03:13:06;;;;;;;7.87;4.90;;;10.00;99.90;;;;;;5011884;28;20421;-70
2023/04/27 03:15:31;;;;;;;6.90;5.50;;;10.10;99.90;;;;;;5013288;28;20235;-70
2023/04/27 03:17:57;;;;;;;6.47;5.47;;;10.10;99.90;;;;;;4995662;28;20204;-70
2023/04/27 03:20:22;;;;;;;5.63;5.10;;;10.00;99.90;;;;;;5013124;28;20207;-70
2023/04/27 03:22:48;;;;;;;8.10;6.00;;;10.00;99.90;;;;;;5013332;28;20175;-70
2023/04/27 03:25:14;;;;;;;6.20;5.00;;;9.90;99.90;;;;;;5013392;28;20260;-70
2023/04/27 03:27:39;;;;;;;6.80;5.63;;;9.90;99.90;;;;;;5013293;28;20174;-69
2023/04/27 03:30:06;;;;;;;5.97;5.37;;;9.90;99.90;;;;;;5013639;28;20211;-69
2023/04/27 03:32:31;;;;;;;10.37;5.80;;;9.90;99.90;;;;;;5013069;28;20184;-69
2023/04/27 03:34:57;;;;;;;5.90;5.10;;;9.90;99.90;;;;;;5012272;28;20459;-69
2023/04/27 03:37:23;;;;;;;5.77;5.17;;;10.00;99.90;;;;;;5013171;28;20184;-69
2023/04/27 03:39:48;;;;;;;6.33;5.63;;;10.10;99.90;;;;;;5013054;28;20229;-69
2023/04/27 03:42:14;;;;;;;7.77;5.20;;;10.00;99.90;;;;;;5013615;28;20267;-69
2023/04/27 03:44:39;;;;;;;7.20;5.47;;;10.00;99.90;;;;;;5013500;28;20169;-69
2023/04/27 03:47:08;;;;;;;6.20;5.70;;;9.90;99.90;;;;;;5005167;28;20218;-69
2023/04/27 03:49:34;;;;;;;6.27;5.67;;;10.00;99.90;;;;;;5003607;28;20183;-69
2023/04/27 03:52:00;;;;;;;6.03;5.43;;;10.00;99.90;;;;;;5003285;28;21064;-69
2023/04/27 03:54:25;;;;;;;6.10;5.47;;;10.10;99.90;;;;;;5006737;28;20416;-69
2023/04/27 03:56:51;;;;;;;5.73;5.10;;;10.10;99.90;;;;;;5007244;28;20661;-68
2023/04/27 03:59:17;;;;;;;7.33;5.90;;;10.20;99.90;;;;;;5007242;28;20187;-69
2023/04/27 04:01:42;;;;;;;5.77;5.20;;;10.20;99.90;;;;;;5007099;28;20212;-69
2023/04/27 04:04:08;;;;;;;7.03;5.20;;;10.20;99.90;;;;;;5007191;28;20564;-69
2023/04/27 04:06:33;;;;;;;6.73;5.37;;;10.20;99.90;;;;;;5007347;28;20176;-71
2023/04/27 04:08:59;;;;;;;5.90;5.40;;;10.20;99.90;;;;;;5006831;28;20586;-68
2023/04/27 04:11:26;;;;;;;5.60;4.90;;;10.10;99.90;;;;;;5006880;28;20619;-71
2023/04/27 04:13:51;;;;;;;6.07;5.47;;;10.20;99.90;;;;;;5006589;28;20432;-69
2023/04/27 04:16:17;;;;;;;7.40;5.03;;;10.20;99.90;;;;;;5007051;28;20929;-70
2023/04/27 04:18:42;;;;;;;6.50;5.10;;;10.10;99.90;;;;;;5006756;28;20773;-69
2023/04/27 04:21:12;;;;;;;6.03;5.43;;;10.20;99.90;;;;;;5007409;28;20212;-70
2023/04/27 04:23:39;;;;;;;7.20;5.47;;;10.30;99.90;;;;;;5007131;28;20602;-70
2023/04/27 04:26:05;;;;;;;7.00;6.40;;;10.30;99.90;;;;;;5007143;28;20423;-70
2023/04/27 04:28:31;;;;;;;6.60;5.80;;;10.20;99.90;;;;;;5006990;28;20482;-71
2023/04/27 04:30:58;;;;;;;9.97;6.43;;;10.20;99.90;;;;;;5006638;28;20907;-70
2023/04/27 04:33:25;;;;;;;6.90;6.17;;;10.20;99.90;;;;;;5006721;28;20587;-70
2023/04/27 04:35:50;;;;;;;6.23;5.63;;;10.20;99.90;;;;;;5006669;28;20458;-69
2023/04/27 04:38:16;;;;;;;8.77;5.97;;;10.10;99.90;;;;;;5005945;28;20870;-69
2023/04/27 04:40:42;;;;;;;7.67;6.07;;;10.10;99.90;;;;;;5006736;28;20221;-70
2023/04/27 04:43:07;;;;;;;8.43;7.60;;;10.20;99.90;;;;;;5006643;28;20426;-71
2023/04/27 04:45:33;;;;;;;7.63;6.60;;;10.20;99.90;;;;;;5005876;28;20173;-71
2023/04/27 04:48:02;;;;;;;8.23;7.07;;;10.20;99.90;;;;;;5015363;28;20551;-71
2023/04/27 04:50:28;;;;;;;11.80;8.13;;;10.20;99.90;;;;;;5015884;28;20694;-71
2023/04/27 04:52:54;;;;;;;11.40;8.43;;;10.30;99.90;;;;;;5016085;28;20500;-70
2023/04/27 04:55:20;;;;;;;9.23;8.03;;;10.20;99.90;;;;;;4998182;28;20172;-71
2023/04/27 04:57:45;;;;;;;11.00;6.60;;;10.20;99.90;;;;;;4998547;28;20919;-71
2023/04/27 05:00:12;;;;;;;7.70;6.93;;;10.10;99.90;;;;;;5015445;28;20675;-71
2023/04/27 05:02:41;;;;;;;10.80;7.70;;;10.00;99.90;;;;;;5015776;28;20196;-70
2023/04/27 05:05:07;;;;;;;7.30;6.60;;;10.10;99.90;;;;;;5014903;28;20938;-71
2023/04/27 05:07:33;;;;;;;8.10;7.00;;;10.20;99.90;;;;;;5015739;28;20491;-71
2023/04/27 05:09:58;;;;;;;7.20;6.40;;;10.40;99.90;;;;;;5015674;28;20437;-71
2023/04/27 05:12:24;;;;;;;10.60;6.90;;;10.50;99.90;;;;;;4998203;28;20452;-71
2023/04/27 05:14:51;;;;;;;6.67;5.93;;;10.50;99.90;;;;;;4997653;28;20255;-71
2023/04/27 05:17:16;;;;;;;7.43;6.73;;;10.60;99.90;;;;;;5015981;28;20219;-70
2023/04/27 05:19:42;;;;;;;6.37;5.77;;;10.70;99.90;;;;;;5015077;28;20424;-69
2023/04/27 05:22:08;;;;;;;12.10;6.53;;;10.60;99.90;;;;;;5015556;28;20234;-70
2023/04/27 05:24:33;;;;;;;6.53;5.70;;;10.70;99.90;;;;;;5015414;28;20539;-71
2023/04/27 05:26:59;;;;;;;6.50;5.30;;;10.80;99.90;;;;;;5014218;28;20181;-71
2023/04/27 05:29:26;;;;;;;6.73;5.90;;;10.90;99.90;;;;;;4996923;28;20697;-70
2023/04/27 05:31:52;;;;;;;7.43;6.20;;;10.90;99.90;;;;;;5015515;28;20235;-70
2023/04/27 05:34:18;;;;;;;8.10;6.53;;;11.00;99.90;;;;;;5014112;28;20477;-70
2023/04/27 05:36:45;;;;;;;8.30;7.50;;;11.10;99.90;;;;;;5015374;28;20466;-70
2023/04/27 05:39:11;;;;;;;11.73;7.10;;;11.10;99.90;;;;;;5015245;28;20417;-71
2023/04/27 05:41:37;;;;;;;7.60;6.90;;;11.30;99.90;;;;;;5014650;28;20885;-71
2023/04/27 05:44:03;;;;;;;9.13;7.00;;;11.40;99.90;;;;;;5014585;28;20496;-70
2023/04/27 05:46:28;;;;;;;9.03;7.00;;;11.50;99.90;;;;;;5014950;28;20179;-70
2023/04/27 05:48:54;;;;;;;9.17;7.40;;;11.60;99.90;;;;;;5014455;28;20174;-70
2023/04/27 05:51:20;;;;;;;9.37;6.80;;;11.70;99.90;;;;;;5015334;28;20199;-71
2023/04/27 05:53:45;;;;;;;8.63;7.10;;;11.90;99.90;;;;;;5016623;28;20195;-71
2023/04/27 05:56:11;;;;;;;9.73;7.97;;;11.80;99.90;;;;;;5015245;28;20172;-69
2023/04/27 05:58:37;;;;;;;9.37;8.50;;;12.00;99.90;;;;;;5014387;28;20176;-70
2023/04/27 06:01:02;;;;;;;7.50;6.70;;;11.90;99.90;;;;;;5014461;28;20209;-71
2023/04/27 06:03:29;;;;;;;8.67;7.77;;;11.90;99.90;;;;;;5015065;28;20185;-70
2023/04/27 06:05:56;;;;;;;10.30;7.10;;;12.00;99.90;;;;;;5014610;28;20176;-70
2023/04/27 06:08:22;;;;;;;9.40;8.40;;;12.10;99.90;;;;;;5014467;28;20486;-70
2023/04/27 06:10:49;;;;;;;12.27;8.23;;;12.30;99.90;;;;;;5014758;28;20431;-71
2023/04/27 06:13:15;;;;;;;12.07;8.03;;;12.20;99.90;;;;;;5014124;28;20168;-69
2023/04/27 06:15:40;;;;;;;12.83;7.80;;;12.30;99.90;;;;;;4996620;28;20421;-70
2023/04/27 06:18:06;;;;;;;11.20;7.73;;;12.30;99.90;;;;;;4996195;28;20183;-70
2023/04/27 06:20:31;;;;;;;10.37;7.73;;;12.40;99.90;;;;;;4996383;28;20200;-70
2023/04/27 06:22:58;;;;;;;9.10;8.30;;;12.50;99.90;;;;;;5014262;28;20542;-70
2023/04/27 06:25:26;;;;;;;8.90;8.00;;;12.30;99.90;;;;;;5014273;28;20198;-70
2023/04/27 06:27:51;;;;;;;9.03;7.20;;;12.40;99.90;;;;;;5014195;28;20421;-69
2023/04/27 06:30:17;;;;;;;8.90;8.03;;;12.60;99.90;;;;;;5013947;28;20919;-70
2023/04/27 06:32:43;;;;;;;12.20;8.43;;;12.70;99.90;;;;;;5014753;28;20233;-69
2023/04/27 06:35:09;;;;;;;11.43;8.40;;;12.40;99.90;;;;;;5013901;28;20577;-70
2023/04/27 06:37:35;;;;;;;8.70;7.80;;;12.10;99.90;;;;;;5014294;28;20195;-71
2023/04/27 06:40:04;;;;;;;8.70;7.90;;;12.30;99.90;;;;;;4998728;28;20537;-70
2023/04/27 06:42:30;;;;;;;9.33;8.43;;;12.50;99.90;;;;;;5014709;28;20638;-70
2023/04/27 06:44:58;;;;;;;9.07;8.27;;;12.40;99.90;;;;;;5013857;28;20480;-70
2023/04/27 06:47:24;;;;;;;10.47;8.37;;;12.60;99.90;;;;;;5014074;28;20187;-70
2023/04/27 06:49:50;;;;;;;11.57;7.93;;;12.80;99.90;;;;;;5013869;28;20405;-70
2023/04/27 06:52:16;;;;;;;13.67;9.20;;;12.90;99.90;;;;;;4996637;28;20179;-70
2023/04/27 06:54:42;;;;;;;12.17;9.07;;;12.90;99.90;;;;;;5014101;28;20919;-71
2023/04/27 06:57:08;;;;;;;12.03;8.43;;;12.90;99.90;;;;;;5014621;28;20173;-70
2023/04/27 06:59:33;;;;;;;12.40;8.83;;;13.00;99.90;;;;;;5013831;28;20189;-70
2023/04/27 07:01:59;;;;;;;7.63;6.93;;;13.00;99.90;;;;;;5014102;28;20203;-70
2023/04/27 07:04:26;;;;;;;11.63;9.17;;;13.10;99.90;;;;;;5014320;28;20241;-70
2023/04/27 07:06:52;;;;;;;10.70;8.77;;;13.10;99.90;;;;;;5014858;28;20578;-70
2023/04/27 07:09:17;;;;;;;9.70;8.70;;;13.30;99.90;;;;;;5014541;28;20412;-71
2023/04/27 07:11:43;;;;;;;9.93;8.50;;;12.90;99.90;;;;;;5014549;28;20681;-70
2023/04/27 07:14:09;;;;;;;11.10;9.70;;;12.60;99.90;;;;;;5014107;28;20268;-69
2023/04/27 07:16:35;;;;;;;10.33;9.20;;;12.70;99.90;;;;;;5015496;28;20168;-69
2023/04/27 07:19:00;;;;;;;13.90;8.00;;;12.90;99.90;;;;;;5014943;28;20171;-69
2023/04/27 07:21:27;;;;;;;9.60;8.53;;;13.20;99.90;;;;;;5014981;28;20545;-69
2023/04/27 07:23:53;;;;;;;12.30;9.17;;;13.50;99.90;;;;;;5014935;28;20201;-69
2023/04/27 07:26:18;;;;;;;12.70;9.90;;;13.60;99.90;;;;;;5014157;28;20403;-71
2023/04/27 07:28:46;;;;;;;10.03;7.13;;;13.70;99.90;;;;;;5016440;28;20197;-70
2023/04/27 07:31:11;;;;;;;9.93;7.63;;;13.40;99.90;;;;;;5017884;28;20666;-71
2023/04/27 07:33:38;;;;;;;9.03;7.77;;;13.20;99.90;;;;;;5017501;28;20443;-71
2023/04/27 07:36:04;;;;;;;9.93;8.13;;;13.30;99.90;;;;;;5018503;28;20218;-70
2023/04/27 07:38:30;;;;;;;10.40;8.80;;;13.40;99.90;;;;;;5017808;28;20464;-70
2023/04/27 07:41:00;;;;;;;11.37;8.60;;;13.50;99.90;;;;;;4999524;28;20506;-70
2023/04/27 07:43:26;;;;;;;8.03;6.93;;;13.60;99.90;;;;;;5016497;28;20459;-70
2023/04/27 07:45:53;;;;;;;8.93;6.47;;;13.70;99.90;;;;;;5016414;28;20915;-71
2023/04/27 07:48:19;;;;;;;9.30;8.33;;;13.70;99.90;;;;;;5017669;28;20221;-71
2023/04/27 07:50:44;;;;;;;8.03;7.23;;;13.30;99.90;;;;;;5017680;28;20456;-71
2023/04/27 07:53:10;;;;;;;9.50;7.40;;;13.20;99.90;;;;;;5016936;28;20414;-70
2023/04/27 07:55:36;;;;;;;9.50;7.17;;;13.20;99.90;;;;;;5016972;28;20181;-71
2023/04/27 07:58:03;;;;;;;9.93;6.80;;;13.40;99.90;;;;;;5017218;28;20180;-70
2023/04/27 08:00:28;;;;;;;9.87;7.20;;;13.50;99.90;;;;;;5016945;28;20476;-70
2023/04/27 08:02:54;;;;;;;8.60;6.97;;;13.70;99.90;;;;;;5017078;28;20435;-70
2023/04/27 08:05:20;;;;;;;7.73;6.80;;;14.00;99.90;;;;;;5016634;28;20664;-70
2023/04/27 08:07:46;;;;;;;13.33;6.57;;;14.20;99.90;;;;;;5017204;28;20407;-70
2023/04/27 08:10:12;;;;;;;7.93;5.63;;;14.10;99.90;;;;;;5017164;28;20274;-71
2023/04/27 08:12:38;;;;;;;6.83;5.73;;;14.00;99.90;;;;;;5018076;28;20186;-70
2023/04/27 08:15:07;;;;;;;7.13;5.90;;;14.00;99.90;;;;;;5017195;28;20420;-69
2023/04/27 08:17:33;;;;;;;7.17;6.43;;;13.90;99.90;;;;;;5016924;28;20205;-69
2023/04/27 08:19:59;;;;;;;8.83;6.20;;;13.90;99.90;;;;;;5016891;28;20916;-69
2023/04/27 08:22:24;;;;;;;6.30;5.70;;;14.10;99.90;;;;;;5016706;28;20447;-70
2023/04/27 08:24:50;;;;;;;9.57;6.43;;;14.30;99.90;;;;;;5016682;28;20197;-70
2023/04/27 08:27:15;;;;;;;6.93;5.40;;;14.60;99.80;;;;;;5015362;28;20172;-70
2023/04/27 08:29:46;;;;;;;8.63;5.60;;;14.80;99.20;;;;;;5016362;28;20552;-70
2023/04/27 08:32:12;;;;;;;10.80;6.50;;;15.00;99.40;;;;;;5016688;28;20204;-70
2023/04/27 08:34:38;;;;;;;6.33;4.67;;;14.90;98.50;;;;;;5016361;28;20486;-70
2023/04/27 08:37:04;;;;;;;7.53;4.60;;;14.70;96.90;;;;;;5016526;28;20420;-70
2023/04/27 08:39:29;;;;;;;7.77;5.10;;;14.90;97.00;;;;;;5015531;28;20618;-70
2023/04/27 08:41:55;;;;;;;7.10;4.30;;;14.80;97.00;;;;;;5015828;28;20248;-70
2023/04/27 08:44:21;;;;;;;5.13;3.80;;;14.80;96.50;;;;;;5015821;28;20185;-71
2023/04/27 08:46:47;;;;;;;15.93;6.17;;;14.90;96.70;;;;;;5016598;28;20170;-71
2023/04/27 08:49:12;;;;;;;4.63;4.10;;;15.00;98.10;;;;;;5016486;28;20252;-70
2023/04/27 08:51:39;;;;;;;8.47;6.13;;;15.30;97.80;;;;;;5016574;28;20773;-70
2023/04/27 08:54:04;;;;;;;8.37;5.80;;;15.30;97.60;;;;;;5016873;28;20251;-70
2023/04/27 08:56:30;;;;;;;6.20;5.60;;;15.10;98.40;;;;;;5010266;28;20898;-71
2023/04/27 08:58:57;;;;;;;6.87;6.20;;;15.20;98.20;;;;;;5015948;28;20176;-71
2023/04/27 09:01:24;;;;;;;7.03;6.23;;;15.30;98.20;;;;;;5016184;28;20208;-71
2023/04/27 09:03:57;;;;;;;7.40;6.23;;;15.20;99.10;;;;;;5015930;28;20908;-71
2023/04/27 09:06:33;;;;;;;8.70;6.00;;;15.10;98.90;;;;;;5016431;28;20782;-71
2023/04/27 09:09:00;;;;;;;7.13;6.43;;;15.20;98.20;;;;;;5016280;28;20403;-71
2023/04/27 09:11:36;;;;;;;8.70;6.20;;;15.50;98.50;;;;;;5016031;28;20430;-71
2023/04/27 09:14:16;;;;;;;8.77;6.63;;;15.80;98.40;;;;;;5015238;28;20484;-69
2023/04/27 09:16:43;;;;;;;8.53;7.30;;;15.40;97.90;;;;;;5016190;28;20393;-70
2023/04/27 09:19:09;;;;;;;8.33;7.47;;;15.00;98.10;;;;;;5015941;28;20410;-70
2023/04/27 09:21:34;;;;;;;9.00;6.47;;;15.20;98.90;;;;;;5015852;28;20978;-70
2023/04/27 09:24:13;;;;;;;6.43;5.53;;;15.60;98.20;;;;;;5015835;28;20411;-69
2023/04/27 09:26:41;;;;;;;7.00;6.30;;;15.50;97.70;;;;;;5015166;28;20204;-69
2023/04/27 09:29:07;;;;;;;7.90;6.40;;;15.50;97.30;;;;;;5015100;28;20403;-69
2023/04/27 09:31:36;;;;;;;7.10;5.83;;;15.40;97.00;;;;;;5015300;28;20437;-69
2023/04/27 09:34:02;;;;;;;7.80;5.70;;;15.60;96.90;;;;;;5014370;28;20415;-68
2023/04/27 09:36:31;;;;;;;6.50;5.23;;;15.70;96.50;;;;;;5014976;28;20911;-69
2023/04/27 09:38:57;;;;;;;11.67;6.20;;;15.60;95.70;;;;;;5015478;28;20425;-69
2023/04/27 09:41:24;;;;;;;8.40;6.97;;;15.60;96.30;;;;;;5014846;28;20529;-69
2023/04/27 09:43:51;;;;;;;8.13;5.60;;;15.70;96.40;;;;;;5015839;28;20500;-69
2023/04/27 09:46:17;;;;;;;11.43;6.33;;;16.00;96.00;;;;;;5015613;28;20457;-70
2023/04/27 09:48:43;;;;;;;7.70;5.67;;;16.20;96.70;;;;;;5016249;28;20466;-70
2023/04/27 09:51:09;;;;;;;8.40;6.40;;;16.60;96.30;;;;;;5014992;28;20521;-70
2023/04/27 09:54:02;;;;;;;9.80;5.60;;;16.80;95.00;;;;;;5016114;28;20175;-70
2023/04/27 09:56:52;;;;;;;8.63;5.73;;;16.80;94.30;;;;;;5013827;28;20180;-70
2023/04/27 09:59:29;;;;;;;8.13;6.27;;;16.90;93.90;;;;;;5014155;28;20403;-70
2023/04/27 10:01:59;;;;;;;7.30;5.60;;;16.80;94.30;;;;;;5015365;28;20460;-70
2023/04/27 10:04:43;;;;;;;7.33;5.80;;;17.00;95.60;;;;;;5014590;28;20407;-69
2023/04/27 10:07:13;;;;;;;6.10;5.00;;;17.10;93.20;;;;;;5015121;28;20818;-70
2023/04/27 10:09:52;;;;;;;7.47;5.53;;;17.00;93.90;;;;;;5015151;28;20490;-70
2023/04/27 10:12:21;;;;;;;8.23;5.53;;;17.20;94.50;;;;;;5015152;28;20403;-70
2023/04/27 10:14:51;;;;;;;8.00;6.13;;;17.40;92.30;;;;;;5015138;28;20495;-70
2023/04/27 10:17:18;;;;;;;8.07;5.87;;;17.40;93.00;;;;;;4997408;28;20469;-70
2023/04/27 10:19:58;;;;;;;6.40;5.50;;;17.30;93.30;;;;;;5014340;28;20449;-69
2023/04/27 10:22:35;;;;;;;7.37;5.60;;;17.30;92.30;;;;;;5015565;28;20493;-70
2023/04/27 10:25:12;;;;;;;8.50;6.17;;;17.30;92.10;;;;;;4997294;28;20911;-69
2023/04/27 10:27:39;;;;;;;6.33;5.60;;;17.20;91.70;;;;;;5015704;28;20417;-70
2023/04/27 10:30:12;;;;;;;6.70;6.10;;;17.10;91.60;;;;;;5015257;28;20965;-69
2023/04/27 10:32:53;;;;;;;5.33;4.70;;;17.10;91.40;;;;;;5014736;28;20399;-69
2023/04/27 10:35:20;;;;;;;6.77;5.33;;;17.40;91.50;;;;;;5014261;28;20438;-69
2023/04/27 10:37:46;;;;;;;8.60;5.17;;;17.60;91.70;;;;;;5014564;28;20501;-70
2023/04/27 10:40:16;;;;;;;7.70;5.30;;;17.70;90.70;;;;;;5013884;28;20439;-69
2023/04/27 10:42:42;;;;;;;6.73;6.00;;;18.00;91.20;;;;;;5015168;28;20431;-68
2023/04/27 10:45:08;;;;;;;8.87;6.13;;;18.20;89.90;;;;;;5014198;28;20490;-69
2023/04/27 10:47:46;;;;;;;10.07;6.27;;;18.20;88.80;;;;;;5015229;28;20814;-70
2023/04/27 10:50:14;;;;;;;7.43;5.50;;;18.10;88.80;;;;;;5014190;28;20415;-71
2023/04/27 10:52:43;;;;;;;7.43;5.93;;;19.20;87.80;;;;;;5016004;28;20403;-73
2023/04/27 10:55:16;;;;;;;9.00;6.30;;;20.50;85.20;;;;;;5015099;28;20516;-74
2023/04/27 10:57:50;;;;;;;6.90;5.30;;;20.10;83.50;;;;;;5016700;28;20906;-74
2023/04/27 11:00:22;;;;;;;5.93;5.43;;;21.30;83.70;;;;;;5017159;28;20445;-74
2023/04/27 11:02:48;;;;;;;9.60;5.70;;;22.20;78.00;;;;;;5013336;28;20821;-74
2023/04/27 11:05:18;;;;;;;6.93;5.47;;;22.20;74.50;;;;;;5013202;28;20496;-74
2023/04/27 11:07:46;;;;;;;6.03;5.40;;;22.20;72.50;;;;;;5014302;28;20247;-74
2023/04/27 11:10:15;;;;;;;5.57;4.80;;;21.80;76.00;;;;;;5014151;28;20423;-74
2023/04/27 11:12:41;;;;;;;8.73;5.50;;;22.10;72.60;;;;;;5012751;28;20415;-74
2023/04/27 11:15:08;;;;;;;9.07;5.40;;;21.90;71.80;;;;;;5012748;28;20422;-74
2023/04/27 11:17:33;;;;;;;7.90;4.87;;;21.60;70.30;;;;;;5014154;28;20164;-73
2023/04/27 11:19:59;;;;;;;6.90;4.80;;;20.70;73.10;;;;;;5013311;28;20819;-74
2023/04/27 11:22:25;;;;;;;9.50;5.10;;;20.90;74.20;;;;;;5013902;28;20192;-73
2023/04/27 11:24:51;;;;;;;6.80;5.20;;;21.10;71.90;;;;;;5013817;28;20540;-74
2023/04/27 11:27:20;;;;;;;6.90;5.00;;;21.70;69.60;;;;;;5012773;28;20418;-74
2023/04/27 11:29:46;;;;;;;6.60;4.63;;;23.10;70.00;;;;;;5013647;28;20779;-73
2023/04/27 11:32:22;;;;;;;7.83;5.00;;;22.30;68.50;;;;;;5013534;28;20425;-73
2023/04/27 11:34:49;;;;;;;7.93;5.60;;;20.90;69.40;;;;;;4995487;28;20210;-73
2023/04/27 11:37:22;;;;;;;7.50;5.87;;;21.60;70.80;;;;;;5013461;28;20409;-74
2023/04/27 11:39:48;;;;;;;8.20;6.00;;;22.10;68.90;;;;;;5013646;28;20397;-74
2023/04/27 11:42:23;;;;;;;7.03;5.90;;;21.30;70.10;;;;;;5013566;28;20443;-74
2023/04/27 11:44:58;;;;;;;6.40;5.70;;;21.20;69.90;;;;;;5013381;28;20194;-74
2023/04/27 11:47:26;;;;;;;7.63;5.70;;;21.50;70.50;;;;;;5013476;28;20402;-74
2023/04/27 11:49:55;;;;;;;7.10;5.70;;;22.10;69.50;;;;;;5012550;28;20406;-74
2023/04/27 11:52:22;;;;;;;6.97;4.80;;;22.40;68.80;;;;;;5013306;28;20406;-74
2023/04/27 11:54:49;;;;;;;6.83;4.93;;;23.50;66.50;;;;;;5013279;28;20938;-75
2023/04/27 11:57:15;;;;;;;8.17;6.03;;;24.30;64.80;;;;;;5013056;28;20486;-75
2023/04/27 11:59:41;;;;;;;9.00;6.47;;;23.90;62.10;;;;;;5013316;28;20415;-74
2023/04/27 12:02:07;;;;;;;8.53;5.90;;;24.30;61.20;;;;;;5013317;28;20509;-74
2023/04/27 12:04:33;;;;;;;7.07;5.60;;;24.50;61.00;;;;;;5013118;28;20207;-74
2023/04/27 12:07:01;;;;;;;6.53;5.77;;;23.90;61.20;;;;;;4995776;28;20418;-74
2023/04/27 12:09:27;;;;;;;5.83;5.03;;;24.60;61.10;;;;;;4995543;28;20170;-74
2023/04/27 12:11:53;;;;;;;10.17;5.33;;;24.90;62.40;;;;;;4995767;28;20439;-74
2023/04/27 12:14:19;;;;;;;6.87;6.17;;;24.90;59.20;;;;;;5013206;28;20411;-74
2023/04/27 12:16:45;;;;;;;8.13;5.97;;;22.70;61.40;;;;;;5016627;28;20176;-74
2023/04/27 12:19:11;;;;;;;6.60;5.00;;;22.60;62.50;;;;;;5016536;28;20618;-74
2023/04/27 12:21:37;;;;;;;8.67;5.93;;;23.20;61.50;;;;;;5016017;28;20498;-74
2023/04/27 12:24:03;;;;;;;5.80;4.77;;;23.30;60.20;;;;;;5017160;28;20174;-74
2023/04/27 12:26:28;;;;;;;8.00;6.47;;;24.10;60.60;;;;;;5016637;28;20239;-74
2023/04/27 12:28:55;;;;;;;9.73;6.63;;;23.00;61.00;;;;;;5016410;28;20723;-75
2023/04/27 12:31:23;;;;;;;8.60;6.17;;;23.40;60.10;;;;;;5016690;28;20184;-74
2023/04/27 12:33:49;;;;;;;9.20;5.80;;;23.80;60.60;;;;;;5016292;28;20403;-74
2023/04/27 12:36:16;;;;;;;6.10;5.50;;;23.60;60.00;;;;;;5016111;28;20919;-74
2023/04/27 12:38:41;;;;;;;5.97;5.37;;;23.50;62.50;;;;;;4998625;28;20426;-75
2023/04/27 12:41:07;;;;;;;8.47;5.83;;;24.50;60.40;;;;;;5046012;23;20477;-74
2023/04/27 12:43:35;;;;;;;7.07;5.70;;;25.70;58.80;;;;;;5055778;28;20170;-74